Latest Weather Observations for Century Mine

IDQ60801

Issued at 10:12 am EST Thursday 21 November 2019 (issued every 10 minutes, with the page automatically refreshed every 10 minutes)

About weather observations | Map of weather stations | Latest weather observations for QLD | Other Formats
Station Details ID: 029167 Name: CENTURY MINE Lat: -18.76 Lon: 138.71 Height: 126.8 m
Data from the previous 72 hours. | See also: Recent months at Century Mine
Date/Time
EST
Temp
°C
App
Temp
°C
Dew
Point
°C
Rel
Hum
%
Delta-T
°C
Wind Press
QNH
hPa
Press
MSL
hPa
Rain since
9am
mm
Dir  Spd
km/h
Gust
km/h
Spd
kts
Gust
kts
21/10:00am 34.3 32.2 14.7 30 12.2 N 19 28 10 15 1011.5 1010.6 0.0
21/09:30am 33.4 32.1 15.8 34 11.1 N 17 26 9 14 1011.8 1010.8 0.0
21/09:00am 32.4 31.6 17.1 40 9.8 NNE 17 26 9 14 1011.8 1010.8 0.0
21/08:30am 31.9 31.8 17.0 41 9.5 NNE 13 22 7 12 1011.5 1010.6 0.0
21/08:00am 30.6 30.1 17.0 44 8.6 NE 15 20 8 11 1011.3 1010.4 0.0
21/07:30am 29.8 30.9 17.9 48 7.6 NE 9 11 5 6 1010.8 1009.9 0.0
21/07:00am 28.3 29.8 16.6 49 7.3 ESE 4 7 2 4 1010.2 1009.3 0.0
21/06:30am 27.9 29.5 15.9 48 7.4 N 2 6 1 3 1009.5 1008.6 0.0
21/06:00am 28.7 29.2 16.6 48 7.6 N 9 11 5 6 1008.8 1007.9 0.0
21/05:30am 28.9 29.6 17.1 49 7.5 N 9 13 5 7 1008.5 1007.6 0.0
21/05:00am 28.9 29.4 17.4 49 7.3 NNW 11 13 6 7 1008.0 1007.0 0.0
21/04:30am 28.9 29.3 18.1 52 6.9 NNW 13 17 7 9 1007.7 1006.7 0.0
21/04:00am 28.9 29.4 18.4 53 6.8 NNW 13 17 7 9 1007.6 1006.6 0.0
21/03:30am 28.8 29.3 18.3 53 6.7 NNW 13 17 7 9 1007.4 1006.4 0.0
21/03:00am 29.1 29.0 17.9 50 7.2 NNW 15 20 8 11 1007.3 1006.3 0.0
21/02:30am 29.6 30.0 18.1 50 7.4 NNW 13 17 7 9 1007.4 1006.4 0.0
21/02:00am 29.7 29.9 18.5 51 7.3 NNW 15 19 8 10 1007.6 1006.6 0.0
21/01:30am 29.9 29.9 19.0 52 7.1 N 17 20 9 11 1007.6 1006.6 0.0
21/01:00am 30.2 30.0 18.6 49 7.5 N 17 24 9 13 1008.0 1007.0 0.0
21/12:30am 30.8 30.5 18.2 47 8.1 N 17 24 9 13 1008.4 1007.5 0.0
21/12:00am 31.3 30.9 17.2 42 9.0 N 15 20 8 11 1008.7 1007.8 0.0
 
Date/Time
EST
Temp
°C
App
Temp
°C
Dew
Point
°C
Rel
Hum
%
Delta-T
°C
Wind Press
QNH
hPa
Press
MSL
hPa
Rain since
9am
mm
Dir  Spd
km/h
Gust
km/h
Spd
kts
Gust
kts
20/11:30pm 32.0 31.6 17.1 41 9.5 N 15 20 8 11 1008.9 1008.0 0.0
20/11:00pm 32.4 30.5 16.7 39 10.0 N 22 28 12 15 1008.6 1007.7 0.0
20/10:30pm 33.0 30.8 15.9 35 10.8 N 22 32 12 17 1008.6 1007.7 0.0
20/10:00pm 33.6 31.6 15.6 34 11.3 N 20 32 11 17 1008.2 1007.2 0.0
20/09:30pm 34.5 31.5 14.9 31 12.2 N 24 35 13 19 1007.7 1006.7 0.0
20/09:00pm 35.3 32.0 12.9 26 13.6 N 22 32 12 17 1007.2 1006.2 0.0
20/08:30pm 35.8 32.7 12.1 24 14.3 N 20 30 11 16 1006.8 1005.8 0.0
20/08:00pm 36.3 31.8 12.5 24 14.5 N 28 37 15 20 1006.5 1005.5 0.0
20/07:30pm 36.7 32.6 12.8 24 14.6 N 26 35 14 19 1006.0 1005.0 0.0
20/07:00pm 38.3 35.1 9.8 18 16.8 N 17 30 9 16 1005.5 1004.5 0.0
20/06:30pm 39.7 36.1 5.0 12 19.1 NNE 13 20 7 11 1005.2 1004.2 0.0
20/06:00pm 40.2 36.7 5.4 12 19.4 N 13 20 7 11 1005.0 1004.0 0.0
20/05:30pm 41.4 37.0 5.0 11 20.2 N 17 28 9 15 1004.9 1003.9 0.0
20/05:00pm 41.1 37.8 4.8 11 20.1 NNW 11 20 6 11 1004.9 1003.9 0.0
20/04:30pm 40.7 37.4 4.5 11 19.9 W 11 19 6 10 1004.9 1003.9 0.0
20/04:00pm 40.7 37.4 4.5 11 19.9 NNW 11 17 6 9 1005.0 1004.0 0.0
20/03:30pm 40.0 37.4 4.0 11 19.6 NNE 7 15 4 8 1005.3 1004.3 0.0
20/03:00pm 41.6 37.0 3.8 10 20.7 NNE 17 24 9 13 1005.4 1004.4 0.0
20/02:30pm 41.9 38.4 5.4 11 20.4 NE 13 20 7 11 1005.9 1004.9 0.0
20/02:00pm 42.2 38.4 5.6 11 20.6 NE 15 24 8 13 1006.4 1005.4 0.0
20/01:30pm 41.1 37.5 4.8 11 20.1 NNE 13 24 7 13 1006.9 1005.9 0.0
20/01:00pm 40.8 38.1 5.8 12 19.7 W 9 22 5 12 1007.5 1006.5 0.0
20/12:30pm 40.6 36.9 4.4 11 19.9 N 13 28 7 15 1008.1 1007.1 0.0
20/12:00pm 39.4 35.4 4.7 12 19.0 NW 15 30 8 16 1008.6 1007.7 0.0
20/11:30am 39.0 34.7 3.2 11 19.1 NW 15 24 8 13 1009.0 1008.1 0.0
20/11:00am 38.9 35.4 5.5 13 18.5 NW 13 26 7 14 1009.4 1008.5 0.0
20/10:30am 37.6 34.6 7.5 16 17.0 NW 13 20 7 11 1009.8 1008.9 0.0
20/10:00am 35.8 33.6 10.8 22 14.8 NW 13 20 7 11 1010.1 1009.2 0.0
20/09:30am 34.6 32.7 11.7 25 13.6 WNW 13 20 7 11 1010.4 1009.5 0.0
20/09:00am 33.6 32.3 12.6 28 12.6 WNW 11 17 6 9 1010.5 1009.6 0.0
20/08:30am 31.9 31.0 13.6 32 11.1 W 11 13 6 7 1010.4 1009.5 0.0
20/08:00am 30.8 30.9 15.6 39 9.5 NNW 9 11 5 6 1010.2 1009.3 0.0
20/07:30am 29.4 30.3 16.2 44 8.2 ENE 6 7 3 4 1009.9 1009.0 0.0
20/07:00am 27.7 29.9 16.6 50 6.9 CALM 0 0 0 0 1009.4 1008.5 0.0
20/06:30am 25.0 27.0 15.9 57 5.6 CALM 0 0 0 0 1009.1 1008.2 0.0
20/06:00am 23.6 25.4 15.4 60 5.0 CALM 0 0 0 0 1008.7 1007.8 0.0
20/05:30am 23.6 24.1 14.9 58 5.2 NW 6 11 3 6 1008.5 1007.6 0.0
20/05:00am 24.3 24.8 15.0 56 5.6 W 6 7 3 4 1008.4 1007.5 0.0
20/04:30am 25.3 27.1 15.6 55 5.9 CALM 0 0 0 0 1008.2 1007.2 0.0
20/04:00am 25.4 26.5 15.7 55 5.9 WNW 4 7 2 4 1008.2 1007.2 0.0
20/03:30am 26.4 27.7 16.1 53 6.4 NW 4 9 2 5 1008.2 1007.2 0.0
20/03:00am 27.7 28.7 16.3 49 7.1 ESE 6 9 3 5 1008.4 1007.5 0.0
20/02:30am 28.8 29.9 16.7 48 7.6 NW 6 11 3 6 1008.4 1007.5 0.0
20/02:00am 29.2 29.0 16.7 46 7.9 N 13 15 7 8 1008.0 1007.0 0.0
20/01:30am 29.7 29.4 16.5 45 8.3 NNW 13 19 7 10 1008.3 1007.4 0.0
20/01:00am 30.3 30.2 16.0 42 8.9 NNW 11 17 6 9 1008.5 1007.6 0.0
20/12:30am 31.2 30.2 15.6 39 9.7 NNW 15 20 8 11 1008.7 1007.8 0.0
20/12:00am 31.9 31.0 15.8 38 10.1 NNW 15 20 8 11 1009.1 1008.2 0.0
 
Date/Time
EST
Temp
°C
App
Temp
°C
Dew
Point
°C
Rel
Hum
%
Delta-T
°C
Wind Press
QNH
hPa
Press
MSL
hPa
Rain since
9am
mm
Dir  Spd
km/h
Gust
km/h
Spd
kts
Gust
kts
19/11:30pm 32.6 31.2 15.6 36 10.6 NNW 17 24 9 13 1009.2 1008.3 0.0
19/11:00pm 33.2 31.3 15.2 33 11.2 N 19 26 10 14 1009.3 1008.4 0.0
19/10:30pm 34.0 31.8 14.5 31 12.1 NNW 19 22 10 12 1009.3 1008.4 0.0
19/10:00pm 34.6 32.1 13.4 28 13.0 N 19 28 10 15 1008.9 1008.0 0.0
19/09:30pm 35.3 33.0 12.9 26 13.6 N 17 24 9 13 1008.8 1007.9 0.0
19/09:00pm 35.1 33.7 14.4 29 12.9 NNE 15 24 8 13 1008.5 1007.6 0.0
19/08:30pm 35.5 31.5 4.9 15 16.5 NNE 15 22 8 12 1008.1 1007.1 0.0
19/08:00pm 33.1 29.3 -4.0 9 17.1 NE 7 9 4 5 1007.6 1006.6 0.0
19/07:30pm 35.5 31.9 -3.8 8 18.4 ENE 6 7 3 4 1007.3 1006.3 0.0
19/07:00pm 38.3 34.5 -5.5 6 20.4 SE 6 7 3 4 1007.0 1006.0 0.0
19/06:30pm 40.1 36.2 -4.3 6 21.3 ENE 7 11 4 6 1006.7 1005.7 0.0
19/06:00pm 40.7 36.1 -3.9 6 21.7 SSE 11 17 6 9 1006.3 1005.3 0.0
19/05:30pm 41.5 37.5 -5.7 5 22.4 SW 7 13 4 7 1006.0 1005.0 0.0
19/05:00pm 41.3 37.3 -5.8 5 22.3 ESE 7 11 4 6 1005.8 1004.8 0.0
19/04:30pm 41.8 36.3 -5.5 5 22.5 SE 15 22 8 12 1005.7 1004.7 0.0
19/04:00pm 41.5 37.0 -3.3 6 22.1 W 11 19 6 10 1005.8 1004.8 0.0
19/03:30pm 41.9 37.2 -5.4 5 22.6 NNE 11 20 6 11 1006.2 1005.2 0.0
19/03:00pm 42.0 37.6 -5.4 5 22.7 ENE 9 19 5 10 1006.4 1005.4 0.0
19/02:30pm 41.0 36.8 -3.6 6 21.8 NNW 9 20 5 11 1006.8 1005.8 0.0
19/02:00pm 41.5 37.0 -3.3 6 22.1 SE 11 20 6 11 1007.3 1006.3 0.0
19/01:30pm 41.2 35.9 -3.5 6 21.9 ENE 15 26 8 14 1008.0 1007.0 0.0
19/01:00pm 41.0 36.1 -3.6 6 21.8 E 13 26 7 14 1008.6 1007.7 0.0
19/12:30pm 41.0 36.3 -1.6 7 21.4 ENE 13 32 7 17 1009.0 1008.1 0.0
19/12:00pm 39.3 34.6 0.6 9 19.9 NNE 15 26 8 14 1009.5 1008.6 0.0
19/11:30am 39.5 34.2 -0.8 8 20.3 ENE 17 28 9 15 1009.9 1009.0 0.0
19/11:00am 40.0 34.5 -2.3 7 20.9 E 17 28 9 15 1010.3 1009.4 0.0
19/10:30am 38.3 32.5 -1.7 8 19.7 ENE 19 30 10 16 1010.7 1009.8 0.0
19/10:00am 38.4 32.6 -1.6 8 19.8 E 19 26 10 14 1011.0 1010.1 0.0
19/09:30am 36.9 31.2 -1.1 9 18.8 E 19 28 10 15 1011.3 1010.4 0.0
19/09:00am 34.5 31.5 4.1 15 16.1 E 9 17 5 9 1011.4 1010.5 0.0
19/08:30am 31.8 29.6 5.3 19 14.1 ESE 6 11 3 6 1011.4 1010.5 0.0
19/08:00am 29.6 28.5 5.0 21 12.8 CALM 0 6 0 3 1011.3 1010.4 0.0
19/07:30am 27.7 26.5 4.7 23 11.8 CALM 0 0 0 0 1011.1 1010.2 0.0
19/07:00am 24.3 22.5 5.6 30 9.6 S 4 7 2 4 1010.8 1009.9 0.0
19/06:30am 20.4 19.2 4.4 35 7.8 CALM 0 0 0 0 1010.2 1009.3 0.0
19/06:00am 19.9 18.5 3.6 34 7.8 CALM 0 0 0 0 1009.7 1008.8 0.0
19/05:30am 21.4 20.1 4.0 32 8.5 CALM 0 0 0 0 1009.5 1008.6 0.0
19/05:00am 23.2 20.9 4.7 30 9.2 NE 6 9 3 5 1009.1 1008.2 0.0
19/04:30am 21.9 19.4 4.9 33 8.4 S 7 9 4 5 1008.8 1007.9 0.0
19/04:00am 22.1 19.6 4.7 32 8.6 SSW 7 9 4 5 1008.8 1007.9 0.0
19/03:30am 23.2 22.0 4.7 30 9.2 CALM 0 6 0 3 1008.5 1007.6 0.0
19/03:00am 24.2 22.2 4.6 28 9.8 S 4 7 2 4 1008.6 1007.7 0.0
19/02:30am 25.7 23.0 5.8 28 10.3 S 9 13 5 7 1008.6 1007.7 0.0
19/02:00am 24.7 22.2 4.5 27 10.2 SE 7 9 4 5 1008.7 1007.8 0.0
19/01:30am 25.3 22.7 3.3 24 10.8 SSE 6 9 3 5 1009.0 1008.1 0.0
19/01:00am 26.2 25.0 4.6 25 11.0 CALM 0 6 0 3 1009.1 1008.2 0.0
19/12:30am 27.4 26.0 3.8 22 11.9 CALM 0 6 0 3 1009.5 1008.6 0.0
19/12:00am 27.4 23.6 1.8 19 12.5 SW 11 17 6 9 1010.0 1009.1 0.0
 
Date/Time
EST
Temp
°C
App
Temp
°C
Dew
Point
°C
Rel
Hum
%
Delta-T
°C
Wind Press
QNH
hPa
Press
MSL
hPa
Rain since
9am
mm
Dir  Spd
km/h
Gust
km/h
Spd
kts
Gust
kts
18/11:30pm 27.5 24.4 -2.3 14 13.5 ESE 4 11 2 6 1010.0 1009.1 0.0
18/11:00pm 28.9 24.8 -3.3 12 14.5 ESE 9 15 5 8 1010.1 1009.2 0.0
18/10:30pm 29.3 25.4 -4.2 11 14.9 NNE 7 9 4 5 1009.9 1009.0 0.0
18/10:00pm 28.1 24.3 -5.1 11 14.4 SW 6 7 3 4 1009.5 1008.6 0.0
18/09:30pm 30.3 27.7 -4.7 10 15.5 CALM 0 6 0 3 1009.5 1008.6 0.0
18/09:00pm 29.6 26.2 -5.2 10 15.2 SW 4 6 2 3 1009.2 1008.3 0.0
18/08:30pm 31.8 27.9 -4.9 9 16.4 SW 7 9 4 5 1009.1 1008.2 0.0
18/08:00pm 32.9 28.9 -5.7 8 17.2 WSW 7 9 4 5 1008.9 1008.0 0.0
18/07:30pm 34.6 30.5 -6.2 7 18.3 SSW 7 9 4 5 1008.7 1007.8 0.0
18/07:00pm 37.6 33.6 -6.0 6 20.1 SSW 7 11 4 6 1008.5 1007.6 0.0
18/06:30pm 39.8 35.3 -6.9 5 21.5 SSW 9 19 5 10 1008.3 1007.4 0.0
18/06:00pm 40.7 36.6 -6.3 5 22.0 SSW 7 11 4 6 1008.0 1007.0 0.0
18/05:30pm 40.7 35.5 -6.3 5 22.0 WSW 13 20 7 11 1007.9 1006.9 0.0
18/05:00pm 40.9 36.5 -6.1 5 22.1 NW 9 20 5 11 1007.7 1006.7 0.0
18/04:30pm 41.3 36.5 -5.8 5 22.3 SSE 11 19 6 10 1007.8 1006.8 0.0
18/04:00pm 40.9 35.3 -6.1 5 22.1 SE 15 20 8 11 1008.0 1007.0 0.0
18/03:30pm 40.7 36.3 -6.3 5 22.0 SSE 9 19 5 10 1008.2 1007.2 0.0
18/03:00pm 40.2 36.0 -4.2 6 21.4 NNW 9 17 5 9 1008.5 1007.6 0.0
18/02:30pm 40.6 36.4 -3.9 6 21.6 SE 9 17 5 9 1009.1 1008.2 0.0
18/02:00pm 39.9 36.2 -4.4 6 21.2 NW 6 15 3 8 1009.5 1008.6 0.0
18/01:30pm 40.8 35.9 -3.8 6 21.7 ENE 13 22 7 12 1010.1 1009.2 0.0
18/01:00pm 39.7 34.7 -4.6 6 21.1 ENE 13 26 7 14 1010.7 1009.8 0.0
18/12:30pm 39.6 34.6 -4.6 6 21.0 ESE 13 30 7 16 1011.3 1010.4 0.0
18/12:00pm 39.1 33.5 -2.9 7 20.5 E 17 26 9 14 1012.0 1011.0 0.0
18/11:30am 38.8 33.2 -3.2 7 20.3 E 17 32 9 17 1012.3 1011.3 0.0
18/11:00am 37.8 31.5 -3.9 7 19.8 ESE 20 30 11 16 1012.8 1011.8 0.0
18/10:30am 37.6 30.9 -4.0 7 19.7 E 22 33 12 18 1013.1 1012.1 0.0

Other formats

Comma delimited format used in spreadsheet applications
http://www.bom.gov.au/fwo/IDQ60801/IDQ60801.94261.axf

JavaScript Object Notation format (JSON) in row-major order
http://www.bom.gov.au/fwo/IDQ60801/IDQ60801.94261.json

Data quality

Most of these data are generated automatically and are frequently updated. Quality checks on data are not normally performed. It is possible for incorrect values to appear. Refer to information at About Latest Weather Observations and please check the disclaimer before using these data.